CheckWX is a tool to help pilots better visualize weather data.  It is not intended as a substitute for an official pre-flight weather briefing.

12:06:59 UTC

KSHN METAR
Sanderson Field Airport
Shelton, Washington, USA
Current

28 mins ago

KSHN 261139Z AUTO 25004KT 10SM SCT004 BKN044 OVC080 11/09 A2989 RMK AO2 T01060094
Observed
Jun-26 @ 11:39 UTC
Wind
  • 250° at 4 KTS
Visibility
10 SM
Flight Rules
VFR
Cloud Levels
  • Scattered at 400' AGL
  • Broken at 4,400' AGL
  • Overcast at 8,000' AGL
Temperature
11°C / 52°F
Dewpoint
C / 48°F
Humidity
88%
Altimeter
29.89" Hg
Pressure
1012.22 hPa
Previous

1 hour ago

KSHN 261053Z AUTO 25005KT 10SM OVC004 11/09 A2989 RMK AO2 SLP123 T01110094
Observed
Jun-26 @ 10:53 UTC
Wind
  • 250° at 5 KTS
Visibility
10 SM
Flight Rules
LIFR
Cloud Levels
  • Overcast at 400' AGL
Temperature
11°C / 52°F
Dewpoint
C / 48°F
Humidity
88%
Altimeter
29.89" Hg
Pressure
1012.22 hPa
Previous

2 hours ago

KSHN 260953Z AUTO 25009KT 10SM BKN004 11/09 A2989 RMK AO2 SLP122 T01110094
Observed
Jun-26 @ 09:53 UTC
Wind
  • 250° at 9 KTS
Visibility
10 SM
Flight Rules
LIFR
Cloud Levels
  • Broken at 400' AGL
Temperature
11°C / 52°F
Dewpoint
C / 48°F
Humidity
88%
Altimeter
29.89" Hg
Pressure
1012.22 hPa